createdAt,value
2018-08-18T00:00:20.279Z,15.09
2018-08-18T00:01:20.793Z,15.06
2018-08-18T00:02:20.791Z,15.06
2018-08-18T00:03:20.770Z,15.09
2018-08-18T00:04:20.753Z,15.08
2018-08-18T00:05:20.483Z,15.08
2018-08-18T00:06:20.736Z,15.13
2018-08-18T00:07:20.459Z,15.12
2018-08-18T00:08:20.458Z,15.06
2018-08-18T00:09:20.223Z,15.08
2018-08-18T00:10:20.710Z,15.11
2018-08-18T00:11:20.660Z,15.06
2018-08-18T00:12:20.389Z,15.06
2018-08-18T00:13:20.379Z,15.06
2018-08-18T00:14:20.522Z,14.99
2018-08-18T00:15:20.358Z,14.98
2018-08-18T00:16:20.603Z,15.02
2018-08-18T00:17:20.369Z,14.99
2018-08-18T00:18:20.303Z,14.91
2018-08-18T00:19:20.293Z,14.91
2018-08-18T00:20:20.025Z,14.94
2018-08-18T00:21:20.003Z,14.94
2018-08-18T00:22:20.521Z,14.95
2018-08-18T00:23:20.270Z,14.9
2018-08-18T00:24:19.977Z,14.9
2018-08-18T00:25:20.486Z,14.9
2018-08-18T00:26:20.471Z,14.83
2018-08-18T00:27:20.450Z,14.81
2018-08-18T00:28:20.201Z,14.83
2018-08-18T00:29:20.427Z,14.86
2018-08-18T00:30:20.416Z,14.74
2018-08-18T00:31:20.158Z,14.72
2018-08-18T00:32:20.127Z,14.75
2018-08-18T00:33:19.844Z,14.74
2018-08-18T00:34:20.637Z,14.69
2018-08-18T00:35:20.441Z,14.72
2018-08-18T00:36:20.060Z,14.69
2018-08-18T00:37:20.316Z,14.6
2018-08-18T00:38:19.781Z,14.56
2018-08-18T00:39:20.033Z,14.54
2018-08-18T00:40:20.022Z,14.56
2018-08-18T00:41:19.999Z,14.57
2018-08-18T00:42:19.988Z,14.52
2018-08-18T00:43:19.969Z,14.56
2018-08-18T00:44:19.961Z,14.49
2018-08-18T00:45:19.680Z,14.49
2018-08-18T00:46:20.134Z,14.5
2018-08-18T00:47:20.185Z,14.54
2018-08-18T00:48:19.641Z,14.49
2018-08-18T00:49:20.153Z,14.52
2018-08-18T00:50:19.875Z,14.49
2018-08-18T00:51:20.124Z,14.46
2018-08-18T00:52:20.109Z,14.44
2018-08-18T00:53:19.840Z,14.53
2018-08-18T00:54:19.565Z,14.52
2018-08-18T00:55:20.070Z,14.5
2018-08-18T00:56:20.083Z,14.53
2018-08-18T00:57:20.055Z,14.5
2018-08-18T00:58:20.037Z,14.46
2018-08-18T00:59:19.488Z,14.46
2018-08-18T01:00:19.737Z,14.49
2018-08-18T01:01:19.724Z,14.47
2018-08-18T01:02:19.472Z,14.47
2018-08-18T01:03:19.976Z,14.49
2018-08-18T01:04:19.684Z,14.52
2018-08-18T01:05:19.669Z,14.47
2018-08-18T01:06:19.667Z,14.49
2018-08-18T01:07:19.644Z,14.43
2018-08-18T01:08:19.893Z,14.49
2018-08-18T01:09:19.879Z,14.47
2018-08-18T01:10:19.342Z,14.49
2018-08-18T01:11:20.361Z,14.46
2018-08-18T01:12:19.803Z,14.47
2018-08-18T01:13:19.727Z,14.47
2018-08-18T01:14:20.261Z,14.43
2018-08-18T01:15:19.540Z,14.49
2018-08-18T01:16:19.260Z,14.39
2018-08-18T01:17:19.775Z,14.42
2018-08-18T01:18:19.489Z,14.34
2018-08-18T01:19:19.527Z,14.38
2018-08-18T01:20:19.470Z,14.43
2018-08-18T01:21:19.828Z,14.46
2018-08-18T01:22:19.447Z,14.46
2018-08-18T01:23:19.168Z,14.44
2018-08-18T01:24:19.420Z,14.47
2018-08-18T01:25:19.659Z,14.46
2018-08-18T01:26:19.381Z,14.46
2018-08-18T01:27:19.368Z,14.44
2018-08-18T01:28:19.356Z,14.49
2018-08-18T01:29:19.353Z,14.54
2018-08-18T01:30:19.591Z,14.5
2018-08-18T01:31:19.048Z,14.49
2018-08-18T01:32:19.300Z,14.5
2018-08-18T01:33:19.554Z,14.49
2018-08-18T01:34:19.543Z,14.47
2018-08-18T01:35:19.524Z,14.49
2018-08-18T01:36:19.517Z,14.44
2018-08-18T01:37:18.968Z,14.43
2018-08-18T01:38:19.477Z,14.54
2018-08-18T01:39:18.949Z,14.43
2018-08-18T01:40:19.456Z,14.46
2018-08-18T01:41:19.441Z,14.44
2018-08-18T01:42:18.899Z,14.47
2018-08-18T01:43:18.890Z,14.46
2018-08-18T01:44:19.134Z,14.42
2018-08-18T01:45:19.401Z,14.35
2018-08-18T01:46:19.375Z,14.39
2018-08-18T01:47:19.095Z,14.38
2018-08-18T01:48:19.080Z,14.32
2018-08-18T01:49:19.074Z,14.38
2018-08-18T01:50:18.791Z,14.37
2018-08-18T01:51:18.777Z,14.25
2018-08-18T01:52:19.299Z,14.24
2018-08-18T01:53:19.008Z,14.31
2018-08-18T01:54:18.736Z,14.29
2018-08-18T01:55:19.248Z,14.21
2018-08-18T01:56:19.233Z,14.27
2018-08-18T01:57:18.961Z,14.31
2018-08-18T01:58:19.205Z,14.32
2018-08-18T01:59:18.930Z,14.19
2018-08-18T02:00:18.654Z,14.32
2018-08-18T02:01:18.901Z,14.2
2018-08-18T02:02:19.208Z,14.25
2018-08-18T02:03:18.611Z,14.21
2018-08-18T02:04:19.133Z,14.29
2018-08-18T02:05:18.579Z,14.21
2018-08-18T02:06:18.840Z,14.28
2018-08-18T02:07:19.091Z,14.19
2018-08-18T02:08:18.802Z,14.21
2018-08-18T02:09:18.793Z,14.28
2018-08-18T02:10:18.777Z,14.25
2018-08-18T02:11:19.025Z,14.29
2018-08-18T02:12:19.021Z,14.32
2018-08-18T02:13:19.003Z,14.38
2018-08-18T02:14:18.475Z,14.37
2018-08-18T02:15:18.973Z,14.37
2018-08-18T02:16:18.962Z,14.35
2018-08-18T02:17:18.415Z,14.37
2018-08-18T02:18:18.935Z,14.38
2018-08-18T02:19:18.404Z,14.35
2018-08-18T02:20:18.902Z,14.38
2018-08-18T02:21:18.626Z,14.37
2018-08-18T02:22:18.880Z,14.32
2018-08-18T02:23:18.871Z,14.34
2018-08-18T02:24:18.583Z,14.31
2018-08-18T02:25:18.575Z,14.34
2018-08-18T02:26:18.294Z,14.29
2018-08-18T02:27:18.807Z,14.29
2018-08-18T02:28:18.796Z,14.31
2018-08-18T02:29:18.775Z,14.29
2018-08-18T02:30:18.769Z,14.21
2018-08-18T02:31:18.492Z,14.24
2018-08-18T02:32:18.209Z,14.27
2018-08-18T02:33:18.473Z,14.32
2018-08-18T02:34:18.451Z,14.21
2018-08-18T02:35:18.707Z,14.21
2018-08-18T02:36:18.417Z,14.2
2018-08-18T02:37:18.403Z,14.19
2018-08-18T02:38:18.650Z,14.13
2018-08-18T02:39:18.648Z,14.16
2018-08-18T02:40:18.746Z,14.17
2018-08-18T02:41:18.616Z,14.13
2018-08-18T02:42:18.340Z,14.09
2018-08-18T02:43:18.596Z,14.16
2018-08-18T02:44:18.318Z,14.07
2018-08-18T02:45:18.317Z,14.04
2018-08-18T02:46:18.223Z,14.04
2018-08-18T02:47:18.525Z,13.94
2018-08-18T02:48:18.056Z,13.95
2018-08-18T02:49:18.246Z,13.94
2018-08-18T02:50:18.239Z,13.95
2018-08-18T02:51:18.487Z,13.96
2018-08-18T02:52:18.199Z,13.95
2018-08-18T02:53:18.446Z,13.87
2018-08-18T02:54:18.168Z,13.94
2018-08-18T02:55:18.153Z,13.87
2018-08-18T02:56:17.882Z,13.89
2018-08-18T02:57:18.134Z,13.88
2018-08-18T02:58:18.118Z,13.84
2018-08-18T02:59:18.099Z,13.92
2018-08-18T03:00:18.093Z,13.81
2018-08-18T03:01:17.818Z,13.84
2018-08-18T03:02:18.062Z,13.8
2018-08-18T03:03:18.049Z,13.81
2018-08-18T03:04:18.292Z,13.83
2018-08-18T03:05:18.017Z,13.88
2018-08-18T03:06:17.999Z,13.83
2018-08-18T03:07:18.000Z,13.88
2018-08-18T03:08:18.235Z,13.81
2018-08-18T03:09:18.226Z,13.88
2018-08-18T03:10:17.945Z,13.83
2018-08-18T03:11:17.930Z,13.88
2018-08-18T03:12:17.923Z,13.81
2018-08-18T03:13:17.911Z,13.83
2018-08-18T03:14:18.155Z,13.92
2018-08-18T03:15:18.145Z,13.95
2018-08-18T03:16:17.864Z,14.02
2018-08-18T03:17:18.117Z,14.02
2018-08-18T03:18:17.832Z,13.96
2018-08-18T03:19:17.560Z,13.99
2018-08-18T03:20:17.809Z,14.07
2018-08-18T03:21:17.796Z,14.06
2018-08-18T03:22:17.778Z,14.04
2018-08-18T03:23:17.760Z,14.01
2018-08-18T03:24:18.073Z,13.96
2018-08-18T03:25:18.004Z,13.99
2018-08-18T03:26:17.716Z,13.92
2018-08-18T03:27:17.973Z,13.96
2018-08-18T03:28:17.696Z,13.92
2018-08-18T03:29:17.418Z,13.91
2018-08-18T03:30:17.936Z,13.8
2018-08-18T03:31:17.646Z,13.77
2018-08-18T03:32:17.900Z,13.91
2018-08-18T03:33:17.880Z,13.81
2018-08-18T03:34:17.611Z,13.77
2018-08-18T03:35:17.597Z,13.8
2018-08-18T03:36:17.583Z,13.79
2018-08-18T03:37:17.825Z,13.81
2018-08-18T03:38:17.553Z,13.8
2018-08-18T03:39:17.795Z,13.76
2018-08-18T03:40:17.277Z,13.76
2018-08-18T03:41:17.504Z,13.81
2018-08-18T03:42:17.490Z,13.77
2018-08-18T03:43:17.479Z,13.76
2018-08-18T03:44:17.729Z,13.73
2018-08-18T03:45:17.731Z,13.77
2018-08-18T03:46:17.699Z,13.77
2018-08-18T03:47:17.686Z,13.65
2018-08-18T03:48:17.146Z,13.62
2018-08-18T03:49:17.391Z,13.61
2018-08-18T03:50:17.380Z,13.65
2018-08-18T03:51:17.624Z,13.65
2018-08-18T03:52:17.433Z,13.65
2018-08-18T03:53:17.605Z,13.58
2018-08-18T03:54:17.069Z,13.55
2018-08-18T03:55:17.301Z,13.52
2018-08-18T03:56:17.304Z,13.62
2018-08-18T03:57:17.556Z,13.61
2018-08-18T03:58:17.549Z,13.52
2018-08-18T03:59:16.980Z,13.59
2018-08-18T04:00:17.229Z,13.61
2018-08-18T04:01:17.259Z,13.61
2018-08-18T04:02:16.940Z,13.56
2018-08-18T04:03:17.193Z,13.52
2018-08-18T04:04:17.445Z,13.54
2018-08-18T04:05:17.183Z,13.55
2018-08-18T04:06:17.414Z,13.52
2018-08-18T04:07:17.130Z,13.49
2018-08-18T04:08:17.118Z,13.51
2018-08-18T04:09:17.349Z,13.51
2018-08-18T04:10:17.094Z,13.54
2018-08-18T04:11:17.077Z,13.49
2018-08-18T04:12:16.807Z,13.49
2018-08-18T04:13:17.044Z,13.41
2018-08-18T04:14:17.302Z,13.37
2018-08-18T04:15:16.752Z,13.36
2018-08-18T04:16:17.008Z,13.38
2018-08-18T04:17:17.267Z,13.36
2018-08-18T04:18:16.975Z,13.4
2018-08-18T04:19:16.695Z,13.32
2018-08-18T04:20:16.738Z,13.33
2018-08-18T04:21:16.933Z,13.29
2018-08-18T04:22:16.929Z,13.33
2018-08-18T04:23:17.168Z,13.33
2018-08-18T04:24:17.157Z,13.36
2018-08-18T04:25:16.693Z,13.27
2018-08-18T04:26:16.865Z,13.2
2018-08-18T04:27:16.843Z,13.37
2018-08-18T04:28:16.842Z,13.36
2018-08-18T04:29:16.821Z,13.21
2018-08-18T04:30:16.533Z,13.3
2018-08-18T04:31:17.058Z,13.29
2018-08-18T04:32:17.040Z,13.3
2018-08-18T04:33:16.756Z,13.32
2018-08-18T04:34:16.743Z,13.3
2018-08-18T04:35:16.948Z,13.27
2018-08-18T04:36:16.716Z,13.25
2018-08-18T04:37:16.969Z,13.36
2018-08-18T04:38:16.957Z,13.24
2018-08-18T04:39:16.407Z,13.3
2018-08-18T04:40:16.653Z,13.32
2018-08-18T04:41:16.380Z,13.36
2018-08-18T04:42:16.886Z,13.32
2018-08-18T04:43:16.879Z,13.41
2018-08-18T04:44:16.868Z,13.37
2018-08-18T04:45:16.848Z,13.41
2018-08-18T04:46:16.576Z,13.41
2018-08-18T04:47:16.815Z,13.41
2018-08-18T04:48:16.277Z,13.41
2018-08-18T04:49:16.524Z,13.38
2018-08-18T04:50:16.525Z,13.46
2018-08-18T04:51:16.502Z,13.43
2018-08-18T04:52:16.782Z,13.27
2018-08-18T04:53:16.210Z,13.41
2018-08-18T04:54:16.453Z,13.43
2018-08-18T04:55:16.175Z,13.33
2018-08-18T04:56:16.435Z,13.44
2018-08-18T04:57:16.426Z,13.38
2018-08-18T04:58:16.658Z,13.41
2018-08-18T04:59:16.449Z,13.4
2018-08-18T05:00:16.382Z,13.49
2018-08-18T05:01:16.355Z,13.52
2018-08-18T05:02:16.080Z,13.43
2018-08-18T05:03:16.401Z,13.46
2018-08-18T05:04:16.573Z,13.55
2018-08-18T05:05:16.956Z,13.51
2018-08-18T05:06:16.286Z,13.55
2018-08-18T05:07:16.265Z,13.59
2018-08-18T05:08:16.310Z,13.58
2018-08-18T05:09:15.978Z,13.55
2018-08-18T05:10:15.961Z,13.62
2018-08-18T05:11:15.944Z,13.56
2018-08-18T05:12:16.212Z,13.65
2018-08-18T05:13:16.184Z,13.61
2018-08-18T05:14:16.165Z,13.7
2018-08-18T05:15:16.149Z,13.7
2018-08-18T05:16:16.134Z,13.79
2018-08-18T05:17:16.386Z,13.71
2018-08-18T05:18:16.386Z,13.73
2018-08-18T05:19:15.929Z,13.71
2018-08-18T05:20:16.074Z,13.87
2018-08-18T05:21:15.804Z,13.79
2018-08-18T05:22:16.315Z,13.8
2018-08-18T05:23:15.769Z,13.77
2018-08-18T05:24:16.069Z,13.8
2018-08-18T05:25:16.004Z,13.83
2018-08-18T05:26:15.991Z,13.84
2018-08-18T05:27:16.247Z,13.79
2018-08-18T05:28:15.966Z,13.81
2018-08-18T05:29:16.224Z,13.88
2018-08-18T05:30:15.937Z,13.91
2018-08-18T05:31:16.181Z,13.94
2018-08-18T05:32:15.906Z,13.95
2018-08-18T05:33:15.888Z,14.02
2018-08-18T05:34:15.875Z,14.02
2018-08-18T05:35:16.132Z,14.04
2018-08-18T05:36:16.137Z,14.04
2018-08-18T05:37:15.838Z,14.1
2018-08-18T05:38:16.085Z,14.12
2018-08-18T05:39:15.815Z,14.13
2018-08-18T05:40:15.533Z,14.19
2018-08-18T05:41:15.785Z,14.16
2018-08-18T05:42:15.768Z,14.14
2018-08-18T05:43:15.758Z,14.24
2018-08-18T05:44:15.735Z,14.19
2018-08-18T05:45:15.997Z,14.28
2018-08-18T05:46:15.449Z,14.21
2018-08-18T05:47:15.960Z,14.25
2018-08-18T05:48:15.948Z,14.27
2018-08-18T05:49:15.672Z,14.28
2018-08-18T05:50:15.385Z,14.35
2018-08-18T05:51:15.638Z,14.43
2018-08-18T05:52:15.898Z,14.42
2018-08-18T05:53:15.616Z,14.43
2018-08-18T05:54:15.602Z,14.47
2018-08-18T05:55:15.589Z,14.47
2018-08-18T05:56:15.574Z,14.52
2018-08-18T05:57:15.555Z,14.53
2018-08-18T05:58:15.807Z,14.52
2018-08-18T05:59:15.563Z,14.56
2018-08-18T06:00:15.517Z,14.64
2018-08-18T06:01:15.765Z,14.62
2018-08-18T06:02:15.749Z,14.65
2018-08-18T06:03:15.475Z,14.81
2018-08-18T06:04:15.720Z,14.81
2018-08-18T06:05:15.711Z,14.8
2018-08-18T06:06:15.442Z,14.98
2018-08-18T06:07:15.418Z,14.95
2018-08-18T06:08:15.408Z,14.95
2018-08-18T06:09:15.393Z,15.02
2018-08-18T06:10:15.380Z,15.03
2018-08-18T06:11:15.359Z,15.12
2018-08-18T06:12:15.524Z,15.17
2018-08-18T06:13:15.605Z,15.19
2018-08-18T06:14:15.599Z,15.28
2018-08-18T06:15:15.576Z,15.3
2018-08-18T06:16:15.296Z,15.31
2018-08-18T06:17:15.541Z,15.36
2018-08-18T06:18:15.266Z,15.46
2018-08-18T06:19:15.251Z,15.42
2018-08-18T06:20:15.270Z,15.59
2018-08-18T06:21:15.552Z,15.57
2018-08-18T06:22:15.226Z,15.54
2018-08-18T06:23:15.198Z,15.67
2018-08-18T06:24:14.926Z,15.64
2018-08-18T06:25:15.178Z,15.63
2018-08-18T06:26:14.899Z,15.7
2018-08-18T06:27:15.416Z,15.78
2018-08-18T06:28:15.447Z,15.84
2018-08-18T06:29:15.394Z,15.89
2018-08-18T06:30:15.105Z,15.92
2018-08-18T06:31:15.356Z,16.03
2018-08-18T06:32:15.084Z,16
2018-08-18T06:33:15.064Z,16.12
2018-08-18T06:34:15.051Z,16.18
2018-08-18T06:35:15.125Z,16.2
2018-08-18T06:36:15.298Z,16.16
2018-08-18T06:37:15.298Z,16.25
2018-08-18T06:38:15.268Z,16.31
2018-08-18T06:39:14.731Z,16.3
2018-08-18T06:40:14.987Z,16.35
2018-08-18T06:41:14.872Z,16.31
2018-08-18T06:42:14.947Z,16.42
2018-08-18T06:43:14.676Z,16.48
2018-08-18T06:44:14.922Z,16.52
2018-08-18T06:45:14.643Z,16.62
2018-08-18T06:46:14.631Z,16.58
2018-08-18T06:47:15.152Z,16.7
2018-08-18T06:48:14.870Z,16.7
2018-08-18T06:49:14.863Z,16.71
2018-08-18T06:50:14.579Z,16.71
2018-08-18T06:51:14.861Z,16.75
2018-08-18T06:52:14.753Z,16.86
2018-08-18T06:53:14.817Z,16.77
2018-08-18T06:54:14.839Z,16.85
2018-08-18T06:55:15.935Z,16.93
2018-08-18T06:56:14.500Z,16.92
2018-08-18T06:57:15.207Z,16.98
2018-08-18T06:58:15.010Z,16.96
2018-08-18T06:59:14.998Z,17.03
2018-08-18T07:00:14.982Z,16.92
2018-08-18T07:01:14.714Z,17.03
2018-08-18T07:02:14.429Z,17.1
2018-08-18T07:03:14.678Z,17.1
2018-08-18T07:04:14.934Z,17.11
2018-08-18T07:05:14.426Z,17.17
2018-08-18T07:06:14.909Z,17.23
2018-08-18T07:07:14.366Z,17.28
2018-08-18T07:08:14.618Z,17.26
2018-08-18T07:09:14.891Z,17.3
2018-08-18T07:10:14.595Z,17.36
2018-08-18T07:11:14.587Z,17.43
2018-08-18T07:12:14.570Z,17.35
2018-08-18T07:13:14.293Z,17.41
2018-08-18T07:14:14.543Z,17.53
2018-08-18T07:15:14.270Z,17.5
2018-08-18T07:16:14.524Z,17.53
2018-08-18T07:17:14.508Z,17.51
2018-08-18T07:18:14.761Z,17.59
2018-08-18T07:19:14.258Z,17.69
2018-08-18T07:20:14.746Z,17.67
2018-08-18T07:21:14.201Z,17.69
2018-08-18T07:22:14.188Z,17.81
2018-08-18T07:23:14.446Z,17.87
2018-08-18T07:24:14.693Z,17.97
2018-08-18T07:25:14.421Z,17.92
2018-08-18T07:26:14.675Z,17.97
2018-08-18T07:27:14.124Z,17.95
2018-08-18T07:28:14.785Z,18.03
2018-08-18T07:29:15.237Z,18.09
2018-08-18T07:30:14.623Z,18.06
2018-08-18T07:31:14.351Z,18.17
2018-08-18T07:32:14.330Z,18.15
2018-08-18T07:33:14.319Z,18.19
2018-08-18T07:34:14.314Z,18.12
2018-08-18T07:35:14.291Z,18.21
2018-08-18T07:36:14.560Z,18.22
2018-08-18T07:37:14.491Z,18.21
2018-08-18T07:38:14.550Z,18.31
2018-08-18T07:39:14.756Z,18.36
2018-08-18T07:40:14.744Z,18.34
2018-08-18T07:41:13.967Z,18.36
2018-08-18T07:42:14.219Z,18.39
2018-08-18T07:43:14.216Z,18.39
2018-08-18T07:44:14.189Z,18.54
2018-08-18T07:45:13.920Z,18.42
2018-08-18T07:46:14.239Z,18.54
2018-08-18T07:47:14.421Z,18.54
2018-08-18T07:48:14.784Z,18.54
2018-08-18T07:49:14.403Z,18.55
2018-08-18T07:50:13.859Z,18.61
2018-08-18T07:51:14.377Z,18.57
2018-08-18T07:52:14.366Z,18.62
2018-08-18T07:53:14.336Z,18.76
2018-08-18T07:54:14.346Z,18.74
2018-08-18T07:55:14.077Z,18.76
2018-08-18T07:56:14.057Z,18.79
2018-08-18T07:57:14.043Z,18.92
2018-08-18T07:58:14.297Z,18.9
2018-08-18T07:59:14.024Z,18.83
2018-08-18T08:00:14.656Z,18.99
2018-08-18T08:01:14.002Z,19.01
2018-08-18T08:02:14.283Z,19.05
2018-08-18T08:03:13.977Z,19.13
2018-08-18T08:04:13.935Z,19.24
2018-08-18T08:05:14.451Z,19.23
2018-08-18T08:06:13.945Z,19.28
2018-08-18T08:07:13.933Z,19.35
2018-08-18T08:08:14.133Z,19.35
2018-08-18T08:09:14.204Z,19.36
2018-08-18T08:10:13.915Z,19.4
2018-08-18T08:11:13.901Z,19.39
2018-08-18T08:12:14.166Z,19.36
2018-08-18T08:13:14.140Z,19.4
2018-08-18T08:14:13.859Z,19.42
2018-08-18T08:15:14.112Z,19.54
2018-08-18T08:16:13.837Z,19.53
2018-08-18T08:17:13.836Z,19.6
2018-08-18T08:18:13.897Z,19.69
2018-08-18T08:19:13.814Z,19.76
2018-08-18T08:20:14.087Z,19.95
2018-08-18T08:21:13.532Z,20.02
2018-08-18T08:22:13.514Z,19.97
2018-08-18T08:23:14.031Z,20
2018-08-18T08:24:13.784Z,19.98
2018-08-18T08:25:13.750Z,20.08
2018-08-18T08:26:13.750Z,20.1
2018-08-18T08:27:13.981Z,20.18
2018-08-18T08:28:13.456Z,20.3
2018-08-18T08:29:13.721Z,20.49
2018-08-18T08:30:13.427Z,20.58
2018-08-18T08:31:13.429Z,20.59
2018-08-18T08:32:13.682Z,20.58
2018-08-18T08:33:13.936Z,20.56
2018-08-18T08:34:13.393Z,20.69
2018-08-18T08:35:13.647Z,20.62
2018-08-18T08:36:13.381Z,20.72
2018-08-18T08:37:13.910Z,20.71
2018-08-18T08:38:13.888Z,20.66
2018-08-18T08:39:13.612Z,20.8
2018-08-18T08:40:13.859Z,20.81
2018-08-18T08:41:13.853Z,20.93
2018-08-18T08:42:13.585Z,21.23
2018-08-18T08:43:13.866Z,21.53
2018-08-18T08:44:13.569Z,21.72
2018-08-18T08:45:13.547Z,21.82
2018-08-18T08:46:13.535Z,21.78
2018-08-18T08:47:13.988Z,21.76
2018-08-18T08:48:13.545Z,21.72
2018-08-18T08:49:14.028Z,21.6
2018-08-18T08:50:13.237Z,21.53
2018-08-18T08:51:13.751Z,21.42
2018-08-18T08:52:13.744Z,21.36
2018-08-18T08:53:13.208Z,21.34
2018-08-18T08:54:13.458Z,21.23
2018-08-18T08:55:13.453Z,21.26
2018-08-18T08:56:13.445Z,21.26
2018-08-18T08:57:13.692Z,21.23
2018-08-18T08:58:13.487Z,21.23
2018-08-18T08:59:13.424Z,21.21
2018-08-18T09:00:13.422Z,21.21
2018-08-18T09:01:13.396Z,21.21
2018-08-18T09:02:13.400Z,21.24
2018-08-18T09:03:13.376Z,21.27
2018-08-18T09:04:13.630Z,21.35
2018-08-18T09:05:13.622Z,21.35
2018-08-18T09:06:13.620Z,21.51
2018-08-18T09:07:13.612Z,21.46
2018-08-18T09:08:13.332Z,21.54
2018-08-18T09:09:13.592Z,21.51
2018-08-18T09:10:13.362Z,21.46
2018-08-18T09:11:13.589Z,21.39
2018-08-18T09:12:13.297Z,21.51
2018-08-18T09:13:13.294Z,21.53
2018-08-18T09:14:13.280Z,21.57
2018-08-18T09:15:13.275Z,21.56
2018-08-18T09:16:13.263Z,21.57
2018-08-18T09:17:13.520Z,21.53
2018-08-18T09:18:13.509Z,21.51
2018-08-18T09:19:13.500Z,21.66
2018-08-18T09:20:12.958Z,21.61
2018-08-18T09:21:13.219Z,21.64
2018-08-18T09:22:13.472Z,21.83
2018-08-18T09:23:13.196Z,21.72
2018-08-18T09:24:13.187Z,21.71
2018-08-18T09:25:13.450Z,21.72
2018-08-18T09:26:13.219Z,21.74
2018-08-18T09:27:13.164Z,21.74
2018-08-18T09:28:13.153Z,21.74
2018-08-18T09:29:13.414Z,21.88
2018-08-18T09:30:13.136Z,21.94
2018-08-18T09:31:13.390Z,21.98
2018-08-18T09:32:13.384Z,22.04
2018-08-18T09:33:13.383Z,21.99
2018-08-18T09:34:13.111Z,22.13
2018-08-18T09:35:13.092Z,22.02
2018-08-18T09:36:13.454Z,22.02
2018-08-18T09:37:13.084Z,22.12
2018-08-18T09:38:13.068Z,21.99
2018-08-18T09:39:12.797Z,22.07
2018-08-18T09:40:13.051Z,22.06
2018-08-18T09:41:13.043Z,22.13
2018-08-18T09:42:13.039Z,22.1
2018-08-18T09:43:13.024Z,22.13
2018-08-18T09:44:13.018Z,22.19
2018-08-18T09:45:13.009Z,22.27
2018-08-18T09:46:13.370Z,22.37
2018-08-18T09:47:12.998Z,22.27
2018-08-18T09:48:12.983Z,22.27
2018-08-18T09:49:13.236Z,22.22
2018-08-18T09:50:12.967Z,22.27
2018-08-18T09:51:13.225Z,22.22
2018-08-18T09:52:12.686Z,22.16
2018-08-18T09:53:12.946Z,22.19
2018-08-18T09:54:12.673Z,22.2
2018-08-18T09:55:13.191Z,22.2
2018-08-18T09:56:13.181Z,22.22
2018-08-18T09:57:12.639Z,22.28
2018-08-18T09:58:13.166Z,22.27
2018-08-18T09:59:12.977Z,22.29
2018-08-18T10:00:13.142Z,22.29
2018-08-18T10:01:12.609Z,22.46
2018-08-18T10:02:13.131Z,22.47
2018-08-18T10:03:12.861Z,22.54
2018-08-18T10:04:12.582Z,22.56
2018-08-18T10:05:12.843Z,22.71
2018-08-18T10:06:12.824Z,22.75
2018-08-18T10:07:12.555Z,22.71
2018-08-18T10:08:12.818Z,22.84
2018-08-18T10:09:13.069Z,22.87
2018-08-18T10:10:12.803Z,22.83
2018-08-18T10:11:12.789Z,22.8
2018-08-18T10:12:12.781Z,22.75
2018-08-18T10:13:12.509Z,22.67
2018-08-18T10:14:13.040Z,22.74
2018-08-18T10:15:12.901Z,22.65
2018-08-18T10:16:13.038Z,22.72
2018-08-18T10:17:12.494Z,22.65
2018-08-18T10:18:13.045Z,22.68
2018-08-18T10:19:13.010Z,22.75
2018-08-18T10:20:13.191Z,22.77
2018-08-18T10:21:12.461Z,22.84
2018-08-18T10:22:12.970Z,22.83
2018-08-18T10:23:12.957Z,22.83
2018-08-18T10:24:12.693Z,22.87
2018-08-18T10:25:12.689Z,22.97
2018-08-18T10:26:12.665Z,23.08
2018-08-18T10:27:12.687Z,23.09
2018-08-18T10:28:12.668Z,23.08
2018-08-18T10:29:12.640Z,23.14
2018-08-18T10:30:12.375Z,23.26
2018-08-18T10:31:12.622Z,23.45
2018-08-18T10:32:12.881Z,23.53
2018-08-18T10:33:12.636Z,23.47
2018-08-18T10:34:12.601Z,23.49
2018-08-18T10:35:12.649Z,23.55
2018-08-18T10:36:12.319Z,23.58
2018-08-18T10:37:12.584Z,23.67
2018-08-18T10:38:12.311Z,24.04
2018-08-18T10:39:12.572Z,24.29
2018-08-18T10:40:12.568Z,24.56
2018-08-18T10:41:12.559Z,24.97
2018-08-18T10:42:12.825Z,25.22
2018-08-18T10:43:12.546Z,25.31
2018-08-18T10:44:12.538Z,25.34
2018-08-18T10:45:12.270Z,25.31
2018-08-18T10:46:12.525Z,25.31
2018-08-18T10:47:12.729Z,25.25
2018-08-18T10:48:12.530Z,25.43
2018-08-18T10:49:12.522Z,25.35
2018-08-18T10:50:12.797Z,25.75
2018-08-18T10:51:12.246Z,26.35
2018-08-18T10:52:12.241Z,26.58
2018-08-18T10:53:12.765Z,27.01
2018-08-18T10:54:12.503Z,27.32
2018-08-18T10:55:12.760Z,27.47
2018-08-18T10:56:12.229Z,27.73
2018-08-18T10:57:12.232Z,27.89
2018-08-18T10:58:12.762Z,27.96
2018-08-18T10:59:12.498Z,28.16
2018-08-18T11:00:12.504Z,28.1
2018-08-18T11:01:12.486Z,28.06
2018-08-18T11:02:12.494Z,27.88
2018-08-18T11:03:12.495Z,27.69
2018-08-18T11:04:12.763Z,27.79
2018-08-18T11:05:12.491Z,27.58
2018-08-18T11:06:12.227Z,27.62
2018-08-18T11:07:12.773Z,27.64
2018-08-18T11:08:12.593Z,27.89
2018-08-18T11:09:12.528Z,28.19
2018-08-18T11:10:12.519Z,28.31
2018-08-18T11:11:12.509Z,28.36
2018-08-18T11:12:12.846Z,28.16
2018-08-18T11:13:12.822Z,28.19
2018-08-18T11:14:12.244Z,28.4
2018-08-18T11:15:12.269Z,28.36
2018-08-18T11:16:12.773Z,27.98
2018-08-18T11:17:12.789Z,27.76
2018-08-18T11:18:12.776Z,27.98
2018-08-18T11:19:12.534Z,28.04
2018-08-18T11:20:12.789Z,28.16
2018-08-18T11:21:12.795Z,28.14
2018-08-18T11:22:12.834Z,28.36
2018-08-18T11:23:12.529Z,28.56
2018-08-18T11:24:12.276Z,28.6
2018-08-18T11:25:12.537Z,28.9
2018-08-18T11:26:12.539Z,28.84
2018-08-18T11:27:12.908Z,28.85
2018-08-18T11:28:12.855Z,28.7
2018-08-18T11:29:12.566Z,28.91
2018-08-18T11:30:12.824Z,28.91
2018-08-18T11:31:12.830Z,29.06
2018-08-18T11:32:12.573Z,29.2
2018-08-18T11:33:12.575Z,29.6
2018-08-18T11:34:12.581Z,29.78
2018-08-18T11:35:13.108Z,29.96
2018-08-18T11:36:12.591Z,29.93
2018-08-18T11:37:12.862Z,29.96
2018-08-18T11:38:12.865Z,29.81
2018-08-18T11:39:12.336Z,29.89
2018-08-18T11:40:12.606Z,30.11
2018-08-18T11:41:12.878Z,30.21
2018-08-18T11:42:12.619Z,30.31
2018-08-18T11:43:12.623Z,30.45
2018-08-18T11:44:12.630Z,30.45
2018-08-18T11:45:12.363Z,30.36
2018-08-18T11:46:12.912Z,29.81
2018-08-18T11:47:12.831Z,29.94
2018-08-18T11:48:12.380Z,29.77
2018-08-18T11:49:12.646Z,29.68
2018-08-18T11:50:12.660Z,29.84
2018-08-18T11:51:12.653Z,30
2018-08-18T11:52:12.934Z,30.26
2018-08-18T11:53:12.958Z,30.53
2018-08-18T11:54:12.683Z,30.53
2018-08-18T11:55:12.686Z,30.38
2018-08-18T11:56:12.949Z,30.33
2018-08-18T11:57:12.694Z,30.21
2018-08-18T11:58:12.705Z,29.93
2018-08-18T11:59:12.708Z,29.86
2018-08-18T12:00:12.706Z,29.4
2018-08-18T12:01:12.474Z,29.37
2018-08-18T12:02:13.130Z,29.56
2018-08-18T12:03:12.729Z,29.74
2018-08-18T12:04:12.472Z,29.94
2018-08-18T12:05:12.742Z,30.21
2018-08-18T12:06:13.003Z,30.75
2018-08-18T12:07:12.481Z,31.21
2018-08-18T12:08:12.754Z,31.28
2018-08-18T12:09:13.042Z,31.67
2018-08-18T12:10:12.493Z,31.82
2018-08-18T12:11:12.896Z,32.03
2018-08-18T12:12:12.773Z,32.18
2018-08-18T12:13:13.055Z,32.15
2018-08-18T12:14:12.790Z,32.18
2018-08-18T12:15:12.523Z,32.27
2018-08-18T12:16:12.527Z,32.15
2018-08-18T12:17:12.799Z,32.24
2018-08-18T12:18:12.830Z,32.51
2018-08-18T12:19:13.072Z,32.74
2018-08-18T12:20:13.077Z,32.49
2018-08-18T12:21:12.821Z,32.39
2018-08-18T12:22:12.827Z,31.75
2018-08-18T12:23:13.098Z,31.6
2018-08-18T12:24:12.847Z,31.45
2018-08-18T12:25:12.853Z,31.57
2018-08-18T12:26:12.844Z,31.76
2018-08-18T12:27:12.589Z,31.93
2018-08-18T12:28:12.866Z,32.11
2018-08-18T12:29:12.865Z,32.17
2018-08-18T12:30:13.136Z,32.15
2018-08-18T12:31:13.138Z,32.22
2018-08-18T12:32:12.879Z,32.35
2018-08-18T12:33:12.889Z,32.47
2018-08-18T12:34:12.636Z,32.4
2018-08-18T12:35:12.636Z,32.48
2018-08-18T12:36:13.334Z,32.48
2018-08-18T12:37:13.265Z,32.7
2018-08-18T12:38:12.912Z,32.84
2018-08-18T12:39:12.657Z,33.08
2018-08-18T12:40:13.191Z,33.3
2018-08-18T12:41:12.935Z,32.74
2018-08-18T12:42:13.212Z,32.58
2018-08-18T12:43:13.209Z,32.59
2018-08-18T12:44:13.218Z,32.73
2018-08-18T12:45:12.961Z,32.36
2018-08-18T12:46:12.962Z,32.22
2018-08-18T12:47:12.972Z,32.49
2018-08-18T12:48:12.980Z,32.81
2018-08-18T12:49:13.265Z,32.79
2018-08-18T12:50:13.767Z,32.73
2018-08-18T12:51:12.998Z,32.84
2018-08-18T12:52:13.266Z,32.84
2018-08-18T12:53:13.004Z,32.76
2018-08-18T12:54:13.271Z,32.64